sensor_id;sensor_type;location;lat;lon;timestamp;temperature;humidity
51719;DHT22;37795;53.236;5.704;2022-12-31T00:01:53;12.40;77.40
51719;DHT22;37795;53.236;5.704;2022-12-31T00:04:19;12.40;77.40
51719;DHT22;37795;53.236;5.704;2022-12-31T00:06:46;12.30;77.40
51719;DHT22;37795;53.236;5.704;2022-12-31T00:09:11;12.40;77.30
51719;DHT22;37795;53.236;5.704;2022-12-31T00:11:38;12.30;77.30
51719;DHT22;37795;53.236;5.704;2022-12-31T00:14:04;12.30;77.20
51719;DHT22;37795;53.236;5.704;2022-12-31T00:16:33;12.30;77.30
51719;DHT22;37795;53.236;5.704;2022-12-31T00:19:01;12.30;77.30
51719;DHT22;37795;53.236;5.704;2022-12-31T00:21:29;12.30;77.20
51719;DHT22;37795;53.236;5.704;2022-12-31T00:23:55;12.30;77.20
51719;DHT22;37795;53.236;5.704;2022-12-31T00:26:23;12.30;77.20
51719;DHT22;37795;53.236;5.704;2022-12-31T00:28:50;12.30;77.10
51719;DHT22;37795;53.236;5.704;2022-12-31T00:31:16;12.30;77.20
51719;DHT22;37795;53.236;5.704;2022-12-31T00:33:43;12.20;77.20
51719;DHT22;37795;53.236;5.704;2022-12-31T00:36:20;12.20;77.10
51719;DHT22;37795;53.236;5.704;2022-12-31T00:38:47;12.20;77.20
51719;DHT22;37795;53.236;5.704;2022-12-31T00:41:14;12.20;77.10
51719;DHT22;37795;53.236;5.704;2022-12-31T00:43:41;12.20;77.00
51719;DHT22;37795;53.236;5.704;2022-12-31T00:46:07;12.20;77.00
51719;DHT22;37795;53.236;5.704;2022-12-31T00:48:34;12.20;77.00
51719;DHT22;37795;53.236;5.704;2022-12-31T00:51:01;12.20;77.00
51719;DHT22;37795;53.236;5.704;2022-12-31T00:53:27;12.20;76.90
51719;DHT22;37795;53.236;5.704;2022-12-31T00:55:59;12.20;76.90
51719;DHT22;37795;53.236;5.704;2022-12-31T00:58:25;12.20;76.90
51719;DHT22;37795;53.236;5.704;2022-12-31T01:00:51;12.20;76.90
51719;DHT22;37795;53.236;5.704;2022-12-31T01:03:17;12.20;76.80
51719;DHT22;37795;53.236;5.704;2022-12-31T01:05:43;12.20;76.80
51719;DHT22;37795;53.236;5.704;2022-12-31T01:08:08;12.20;76.80
51719;DHT22;37795;53.236;5.704;2022-12-31T01:10:34;12.10;76.90
51719;DHT22;37795;53.236;5.704;2022-12-31T01:13:18;12.10;76.90
51719;DHT22;37795;53.236;5.704;2022-12-31T01:15:44;12.10;76.80
51719;DHT22;37795;53.236;5.704;2022-12-31T01:18:09;12.10;76.80
51719;DHT22;37795;53.236;5.704;2022-12-31T01:20:37;12.10;76.80
51719;DHT22;37795;53.236;5.704;2022-12-31T01:23:05;12.10;76.80
51719;DHT22;37795;53.236;5.704;2022-12-31T01:25:34;12.10;76.70
51719;DHT22;37795;53.236;5.704;2022-12-31T01:28:00;12.10;76.70
51719;DHT22;37795;53.236;5.704;2022-12-31T01:30:26;12.10;76.80
51719;DHT22;37795;53.236;5.704;2022-12-31T01:32:51;12.10;76.70
51719;DHT22;37795;53.236;5.704;2022-12-31T01:35:17;12.10;76.70
51719;DHT22;37795;53.236;5.704;2022-12-31T01:37:43;12.10;76.80
51719;DHT22;37795;53.236;5.704;2022-12-31T01:40:09;12.10;76.70
51719;DHT22;37795;53.236;5.704;2022-12-31T01:42:35;12.10;76.70
51719;DHT22;37795;53.236;5.704;2022-12-31T01:45:00;12.10;76.80
51719;DHT22;37795;53.236;5.704;2022-12-31T01:47:36;12.10;76.70
51719;DHT22;37795;53.236;5.704;2022-12-31T01:50:49;12.10;76.80
51719;DHT22;37795;53.236;5.704;2022-12-31T01:52:58;12.00;76.70
51719;DHT22;37795;53.236;5.704;2022-12-31T01:55:35;12.00;76.70
51719;DHT22;37795;53.236;5.704;2022-12-31T01:58:13;12.00;76.80
51719;DHT22;37795;53.236;5.704;2022-12-31T02:00:40;12.00;76.70
51719;DHT22;37795;53.236;5.704;2022-12-31T02:03:07;12.00;76.70
51719;DHT22;37795;53.236;5.704;2022-12-31T02:08:08;12.00;76.60
51719;DHT22;37795;53.236;5.704;2022-12-31T02:10:34;12.00;76.70
51719;DHT22;37795;53.236;5.704;2022-12-31T02:13:00;12.00;76.70
51719;DHT22;37795;53.236;5.704;2022-12-31T02:15:53;12.00;76.70
51719;DHT22;37795;53.236;5.704;2022-12-31T02:18:49;12.00;76.70
51719;DHT22;37795;53.236;5.704;2022-12-31T02:21:45;12.00;76.60
51719;DHT22;37795;53.236;5.704;2022-12-31T02:27:18;12.00;76.60
51719;DHT22;37795;53.236;5.704;2022-12-31T02:30:00;12.00;76.60
51719;DHT22;37795;53.236;5.704;2022-12-31T02:38:28;11.90;76.50
51719;DHT22;37795;53.236;5.704;2022-12-31T02:40:56;11.90;76.60
51719;DHT22;37795;53.236;5.704;2022-12-31T02:43:22;11.90;76.50
51719;DHT22;37795;53.236;5.704;2022-12-31T02:54:24;11.90;76.70
51719;DHT22;37795;53.236;5.704;2022-12-31T02:59:52;11.90;76.50
51719;DHT22;37795;53.236;5.704;2022-12-31T03:02:41;11.90;76.50
51719;DHT22;37795;53.236;5.704;2022-12-31T03:05:09;11.90;76.60
51719;DHT22;37795;53.236;5.704;2022-12-31T03:07:38;11.90;76.60
51719;DHT22;37795;53.236;5.704;2022-12-31T03:10:04;11.80;76.60
51719;DHT22;37795;53.236;5.704;2022-12-31T03:12:32;11.80;76.60
51719;DHT22;37795;53.236;5.704;2022-12-31T03:15:14;11.80;76.70
51719;DHT22;37795;53.236;5.704;2022-12-31T03:18:01;11.80;76.70
51719;DHT22;37795;53.236;5.704;2022-12-31T03:20:34;11.80;76.70
51719;DHT22;37795;53.236;5.704;2022-12-31T03:23:32;11.80;76.60
51719;DHT22;37795;53.236;5.704;2022-12-31T03:26:00;11.80;76.60
51719;DHT22;37795;53.236;5.704;2022-12-31T03:28:28;11.80;76.70
51719;DHT22;37795;53.236;5.704;2022-12-31T03:30:57;11.80;76.70
51719;DHT22;37795;53.236;5.704;2022-12-31T03:33:23;11.80;76.70
51719;DHT22;37795;53.236;5.704;2022-12-31T03:35:50;11.80;76.60
51719;DHT22;37795;53.236;5.704;2022-12-31T03:38:16;11.80;76.70
51719;DHT22;37795;53.236;5.704;2022-12-31T03:40:45;11.80;76.70
51719;DHT22;37795;53.236;5.704;2022-12-31T03:43:11;11.70;76.60
51719;DHT22;37795;53.236;5.704;2022-12-31T03:45:37;11.70;76.70
51719;DHT22;37795;53.236;5.704;2022-12-31T03:48:04;11.80;76.70
51719;DHT22;37795;53.236;5.704;2022-12-31T03:50:31;11.70;76.70
51719;DHT22;37795;53.236;5.704;2022-12-31T03:52:57;11.70;76.70
51719;DHT22;37795;53.236;5.704;2022-12-31T03:55:23;11.70;76.60
51719;DHT22;37795;53.236;5.704;2022-12-31T03:57:48;11.70;76.60
51719;DHT22;37795;53.236;5.704;2022-12-31T04:00:16;11.70;76.60
51719;DHT22;37795;53.236;5.704;2022-12-31T04:02:44;11.70;76.70
51719;DHT22;37795;53.236;5.704;2022-12-31T04:05:10;11.70;76.70
51719;DHT22;37795;53.236;5.704;2022-12-31T04:07:36;11.70;76.60
51719;DHT22;37795;53.236;5.704;2022-12-31T04:10:06;11.70;76.60
51719;DHT22;37795;53.236;5.704;2022-12-31T04:12:32;11.70;76.60
51719;DHT22;37795;53.236;5.704;2022-12-31T04:14:58;11.70;76.60
51719;DHT22;37795;53.236;5.704;2022-12-31T04:17:24;11.70;76.60
51719;DHT22;37795;53.236;5.704;2022-12-31T04:19:50;11.70;76.70
51719;DHT22;37795;53.236;5.704;2022-12-31T04:22:16;11.70;76.70
51719;DHT22;37795;53.236;5.704;2022-12-31T04:24:42;11.70;76.60
51719;DHT22;37795;53.236;5.704;2022-12-31T04:27:09;11.70;76.60
51719;DHT22;37795;53.236;5.704;2022-12-31T04:29:35;11.70;76.60
51719;DHT22;37795;53.236;5.704;2022-12-31T04:32:01;11.60;76.70
51719;DHT22;37795;53.236;5.704;2022-12-31T04:34:27;11.60;76.70
51719;DHT22;37795;53.236;5.704;2022-12-31T04:36:53;11.60;76.70
51719;DHT22;37795;53.236;5.704;2022-12-31T04:39:18;11.60;76.70
51719;DHT22;37795;53.236;5.704;2022-12-31T04:41:44;11.60;76.70
51719;DHT22;37795;53.236;5.704;2022-12-31T04:44:10;11.60;76.70
51719;DHT22;37795;53.236;5.704;2022-12-31T04:46:35;11.60;76.70
51719;DHT22;37795;53.236;5.704;2022-12-31T04:49:01;11.60;76.60
51719;DHT22;37795;53.236;5.704;2022-12-31T04:51:29;11.60;76.70
51719;DHT22;37795;53.236;5.704;2022-12-31T04:53:55;11.60;76.70
51719;DHT22;37795;53.236;5.704;2022-12-31T04:56:21;11.60;76.70
51719;DHT22;37795;53.236;5.704;2022-12-31T04:58:47;11.60;76.60
51719;DHT22;37795;53.236;5.704;2022-12-31T05:01:13;11.60;76.70
51719;DHT22;37795;53.236;5.704;2022-12-31T05:03:39;11.60;76.60
51719;DHT22;37795;53.236;5.704;2022-12-31T05:06:09;11.60;76.60
51719;DHT22;37795;53.236;5.704;2022-12-31T05:08:35;11.60;76.80
51719;DHT22;37795;53.236;5.704;2022-12-31T05:11:01;11.60;76.80
51719;DHT22;37795;53.236;5.704;2022-12-31T05:13:27;11.60;76.80
51719;DHT22;37795;53.236;5.704;2022-12-31T05:15:52;11.60;76.80
51719;DHT22;37795;53.236;5.704;2022-12-31T05:18:18;11.60;76.80
51719;DHT22;37795;53.236;5.704;2022-12-31T05:20:44;11.60;76.80
51719;DHT22;37795;53.236;5.704;2022-12-31T05:23:10;11.60;76.80
51719;DHT22;37795;53.236;5.704;2022-12-31T05:25:36;11.60;76.80
51719;DHT22;37795;53.236;5.704;2022-12-31T05:28:02;11.50;76.70
51719;DHT22;37795;53.236;5.704;2022-12-31T05:30:28;11.60;76.70
51719;DHT22;37795;53.236;5.704;2022-12-31T05:32:53;11.50;76.70
51719;DHT22;37795;53.236;5.704;2022-12-31T05:35:19;11.50;76.70
51719;DHT22;37795;53.236;5.704;2022-12-31T05:37:45;11.50;76.70
51719;DHT22;37795;53.236;5.704;2022-12-31T05:40:11;11.50;76.70
51719;DHT22;37795;53.236;5.704;2022-12-31T05:42:37;11.50;76.70
51719;DHT22;37795;53.236;5.704;2022-12-31T05:45:03;11.50;76.70
51719;DHT22;37795;53.236;5.704;2022-12-31T05:47:29;11.50;76.70
51719;DHT22;37795;53.236;5.704;2022-12-31T05:49:54;11.50;76.70
51719;DHT22;37795;53.236;5.704;2022-12-31T05:52:20;11.50;76.80
51719;DHT22;37795;53.236;5.704;2022-12-31T05:54:46;11.50;76.80
51719;DHT22;37795;53.236;5.704;2022-12-31T05:57:12;11.50;76.80
51719;DHT22;37795;53.236;5.704;2022-12-31T05:59:38;11.50;76.80
51719;DHT22;37795;53.236;5.704;2022-12-31T06:02:04;11.50;76.80
51719;DHT22;37795;53.236;5.704;2022-12-31T06:04:30;11.50;76.60
51719;DHT22;37795;53.236;5.704;2022-12-31T06:06:55;11.50;76.70
51719;DHT22;37795;53.236;5.704;2022-12-31T06:09:21;11.50;76.70
51719;DHT22;37795;53.236;5.704;2022-12-31T06:11:47;11.50;76.80
51719;DHT22;37795;53.236;5.704;2022-12-31T06:14:13;11.50;76.70
51719;DHT22;37795;53.236;5.704;2022-12-31T06:16:39;11.50;76.70
51719;DHT22;37795;53.236;5.704;2022-12-31T06:19:05;11.50;76.70
51719;DHT22;37795;53.236;5.704;2022-12-31T06:21:31;11.40;76.70
51719;DHT22;37795;53.236;5.704;2022-12-31T06:23:57;11.40;76.70
51719;DHT22;37795;53.236;5.704;2022-12-31T06:26:23;11.40;76.80
51719;DHT22;37795;53.236;5.704;2022-12-31T06:28:49;11.40;76.80
51719;DHT22;37795;53.236;5.704;2022-12-31T06:31:15;11.40;76.80
51719;DHT22;37795;53.236;5.704;2022-12-31T06:33:41;11.40;76.70
51719;DHT22;37795;53.236;5.704;2022-12-31T06:36:10;11.40;76.70
51719;DHT22;37795;53.236;5.704;2022-12-31T06:38:37;11.40;76.80
51719;DHT22;37795;53.236;5.704;2022-12-31T06:41:10;11.40;76.80
51719;DHT22;37795;53.236;5.704;2022-12-31T06:43:37;11.40;76.70
51719;DHT22;37795;53.236;5.704;2022-12-31T06:46:04;11.40;76.70
51719;DHT22;37795;53.236;5.704;2022-12-31T06:48:31;11.40;76.80
51719;DHT22;37795;53.236;5.704;2022-12-31T06:51:05;11.40;76.70
51719;DHT22;37795;53.236;5.704;2022-12-31T06:58:35;11.70;76.70
51719;DHT22;37795;53.236;5.704;2022-12-31T07:01:13;11.40;76.80
51719;DHT22;37795;53.236;5.704;2022-12-31T07:06:32;11.40;76.80
51719;DHT22;37795;53.236;5.704;2022-12-31T07:09:07;11.40;76.70
51719;DHT22;37795;53.236;5.704;2022-12-31T07:11:56;11.40;76.70
51719;DHT22;37795;53.236;5.704;2022-12-31T07:17:23;11.40;76.60
51719;DHT22;37795;53.236;5.704;2022-12-31T07:22:28;11.50;77.00
51719;DHT22;37795;53.236;5.704;2022-12-31T07:24:54;11.70;76.30
51719;DHT22;37795;53.236;5.704;2022-12-31T07:30:21;12.00;75.10
51719;DHT22;37795;53.236;5.704;2022-12-31T07:33:17;12.20;74.40
51719;DHT22;37795;53.236;5.704;2022-12-31T07:36:49;12.40;73.60
51719;DHT22;37795;53.236;5.704;2022-12-31T07:49:22;12.50;73.60
51719;DHT22;37795;53.236;5.704;2022-12-31T07:51:48;12.50;73.40
51719;DHT22;37795;53.236;5.704;2022-12-31T07:54:14;12.50;73.40
51719;DHT22;37795;53.236;5.704;2022-12-31T07:56:40;12.60;73.30
51719;DHT22;37795;53.236;5.704;2022-12-31T07:59:51;12.60;73.30
51719;DHT22;37795;53.236;5.704;2022-12-31T08:07:44;12.40;73.60
51719;DHT22;37795;53.236;5.704;2022-12-31T08:10:23;12.30;74.00
51719;DHT22;37795;53.236;5.704;2022-12-31T08:13:00;12.30;74.40
51719;DHT22;37795;53.236;5.704;2022-12-31T08:15:26;12.20;74.60
51719;DHT22;37795;53.236;5.704;2022-12-31T08:17:52;12.20;74.70
51719;DHT22;37795;53.236;5.704;2022-12-31T08:20:18;12.20;74.90
51719;DHT22;37795;53.236;5.704;2022-12-31T08:24:02;12.20;75.30
51719;DHT22;37795;53.236;5.704;2022-12-31T08:26:36;12.10;75.50
51719;DHT22;37795;53.236;5.704;2022-12-31T08:29:22;12.10;75.70
51719;DHT22;37795;53.236;5.704;2022-12-31T08:32:03;12.10;75.80
51719;DHT22;37795;53.236;5.704;2022-12-31T08:34:40;12.20;75.80
51719;DHT22;37795;53.236;5.704;2022-12-31T08:37:42;12.30;75.50
51719;DHT22;37795;53.236;5.704;2022-12-31T08:43:29;12.60;75.20
51719;DHT22;37795;53.236;5.704;2022-12-31T08:45:58;12.70;74.80
51719;DHT22;37795;53.236;5.704;2022-12-31T08:50:54;12.90;74.60
51719;DHT22;37795;53.236;5.704;2022-12-31T08:53:20;13.10;74.10
51719;DHT22;37795;53.236;5.704;2022-12-31T08:55:49;13.20;74.00
51719;DHT22;37795;53.236;5.704;2022-12-31T09:00:49;13.40;73.50
51719;DHT22;37795;53.236;5.704;2022-12-31T09:03:39;13.50;73.50
51719;DHT22;37795;53.236;5.704;2022-12-31T09:14:44;13.80;72.90
51719;DHT22;37795;53.236;5.704;2022-12-31T09:17:46;14.00;72.60
51719;DHT22;37795;53.236;5.704;2022-12-31T09:20:33;14.00;72.60
51719;DHT22;37795;53.236;5.704;2022-12-31T09:23:00;14.20;72.50
51719;DHT22;37795;53.236;5.704;2022-12-31T09:25:27;14.30;72.30
51719;DHT22;37795;53.236;5.704;2022-12-31T09:33:50;14.50;72.00
51719;DHT22;37795;53.236;5.704;2022-12-31T09:36:33;14.60;71.70
51719;DHT22;37795;53.236;5.704;2022-12-31T09:53:00;15.00;71.20
51719;DHT22;37795;53.236;5.704;2022-12-31T09:55:39;15.10;71.10
51719;DHT22;37795;53.236;5.704;2022-12-31T10:01:12;15.20;70.80
51719;DHT22;37795;53.236;5.704;2022-12-31T10:04:01;15.30;70.60
51719;DHT22;37795;53.236;5.704;2022-12-31T10:06:46;15.40;70.50
51719;DHT22;37795;53.236;5.704;2022-12-31T10:09:19;15.50;70.50
51719;DHT22;37795;53.236;5.704;2022-12-31T10:17:36;15.70;70.10
51719;DHT22;37795;53.236;5.704;2022-12-31T10:36:50;16.20;69.50
51719;DHT22;37795;53.236;5.704;2022-12-31T10:45:24;16.30;69.10
51719;DHT22;37795;53.236;5.704;2022-12-31T10:48:10;16.40;69.00
51719;DHT22;37795;53.236;5.704;2022-12-31T11:01:50;16.80;68.10
51719;DHT22;37795;53.236;5.704;2022-12-31T11:04:45;16.60;68.90
51719;DHT22;37795;53.236;5.704;2022-12-31T11:18:14;16.00;70.60
51719;DHT22;37795;53.236;5.704;2022-12-31T11:23:36;15.80;71.00
51719;DHT22;37795;53.236;5.704;2022-12-31T11:55:42;16.80;67.20
51719;DHT22;37795;53.236;5.704;2022-12-31T13:08:02;17.20;67.90
51719;DHT22;37795;53.236;5.704;2022-12-31T13:32:07;12.50;82.10
51719;DHT22;37795;53.236;5.704;2022-12-31T13:34:40;11.90;83.70
51719;DHT22;37795;53.236;5.704;2022-12-31T13:37:25;11.90;84.50
51719;DHT22;37795;53.236;5.704;2022-12-31T13:42:49;11.80;85.30
51719;DHT22;37795;53.236;5.704;2022-12-31T13:45:26;11.70;85.70
51719;DHT22;37795;53.236;5.704;2022-12-31T13:47:55;11.70;86.00
51719;DHT22;37795;53.236;5.704;2022-12-31T13:51:00;11.70;86.10
51719;DHT22;37795;53.236;5.704;2022-12-31T13:56:36;11.70;86.00
51719;DHT22;37795;53.236;5.704;2022-12-31T13:59:22;11.70;86.80
51719;DHT22;37795;53.236;5.704;2022-12-31T14:04:49;11.70;87.40
51719;DHT22;37795;53.236;5.704;2022-12-31T14:07:22;11.70;87.60
51719;DHT22;37795;53.236;5.704;2022-12-31T14:09:51;11.80;87.80
51719;DHT22;37795;53.236;5.704;2022-12-31T14:12:52;11.60;88.10
51719;DHT22;37795;53.236;5.704;2022-12-31T14:15:38;11.60;88.10
51719;DHT22;37795;53.236;5.704;2022-12-31T14:18:12;11.50;88.30
51719;DHT22;37795;53.236;5.704;2022-12-31T14:20:57;11.50;88.50
51719;DHT22;37795;53.236;5.704;2022-12-31T14:23:49;11.50;88.60
51719;DHT22;37795;53.236;5.704;2022-12-31T14:26:48;11.50;88.70
51719;DHT22;37795;53.236;5.704;2022-12-31T14:29:20;11.40;88.80
51719;DHT22;37795;53.236;5.704;2022-12-31T14:46:00;11.30;88.60
51719;DHT22;37795;53.236;5.704;2022-12-31T14:51:03;11.30;88.60
51719;DHT22;37795;53.236;5.704;2022-12-31T14:53:30;11.30;88.60
51719;DHT22;37795;53.236;5.704;2022-12-31T14:56:02;11.30;88.70
51719;DHT22;37795;53.236;5.704;2022-12-31T15:01:02;11.20;88.80
51719;DHT22;37795;53.236;5.704;2022-12-31T15:03:35;11.20;88.90
51719;DHT22;37795;53.236;5.704;2022-12-31T15:08:46;11.10;89.00
51719;DHT22;37795;53.236;5.704;2022-12-31T15:17:20;11.00;89.30
51719;DHT22;37795;53.236;5.704;2022-12-31T15:19:55;11.00;89.50
51719;DHT22;37795;53.236;5.704;2022-12-31T15:24:57;10.90;90.20
51719;DHT22;37795;53.236;5.704;2022-12-31T15:27:34;10.90;90.40
51719;DHT22;37795;53.236;5.704;2022-12-31T15:30:01;10.90;90.60
51719;DHT22;37795;53.236;5.704;2022-12-31T15:32:35;10.90;90.70
51719;DHT22;37795;53.236;5.704;2022-12-31T15:35:25;10.90;90.80
51719;DHT22;37795;53.236;5.704;2022-12-31T15:40:26;10.90;90.90
51719;DHT22;37795;53.236;5.704;2022-12-31T15:45:58;10.90;90.90
51719;DHT22;37795;53.236;5.704;2022-12-31T15:48:31;11.00;91.00
51719;DHT22;37795;53.236;5.704;2022-12-31T15:51:01;11.00;91.00
51719;DHT22;37795;53.236;5.704;2022-12-31T15:53:32;11.10;90.80
51719;DHT22;37795;53.236;5.704;2022-12-31T15:55:59;11.10;90.70
51719;DHT22;37795;53.236;5.704;2022-12-31T15:58:30;11.10;90.40
51719;DHT22;37795;53.236;5.704;2022-12-31T16:01:01;11.20;90.10
51719;DHT22;37795;53.236;5.704;2022-12-31T16:03:29;11.20;90.00
51719;DHT22;37795;53.236;5.704;2022-12-31T16:06:07;11.20;89.60
51719;DHT22;37795;53.236;5.704;2022-12-31T16:08:34;11.20;89.30
51719;DHT22;37795;53.236;5.704;2022-12-31T16:11:02;11.20;89.30
51719;DHT22;37795;53.236;5.704;2022-12-31T16:13:29;11.40;88.90
51719;DHT22;37795;53.236;5.704;2022-12-31T16:16:04;11.30;88.90
51719;DHT22;37795;53.236;5.704;2022-12-31T16:18:41;11.40;88.60
51719;DHT22;37795;53.236;5.704;2022-12-31T16:21:24;11.30;88.70
51719;DHT22;37795;53.236;5.704;2022-12-31T16:23:55;11.40;88.60
51719;DHT22;37795;53.236;5.704;2022-12-31T16:26:34;11.40;88.50
51719;DHT22;37795;53.236;5.704;2022-12-31T16:29:03;11.50;88.10
51719;DHT22;37795;53.236;5.704;2022-12-31T16:31:29;11.40;88.10
51719;DHT22;37795;53.236;5.704;2022-12-31T16:34:06;11.40;87.90
51719;DHT22;37795;53.236;5.704;2022-12-31T16:36:36;11.50;87.70
51719;DHT22;37795;53.236;5.704;2022-12-31T16:39:29;11.50;87.40
51719;DHT22;37795;53.236;5.704;2022-12-31T16:42:13;11.50;87.40
51719;DHT22;37795;53.236;5.704;2022-12-31T16:44:43;11.40;87.60
51719;DHT22;37795;53.236;5.704;2022-12-31T16:47:21;11.30;88.10
51719;DHT22;37795;53.236;5.704;2022-12-31T16:49:53;11.40;87.90
51719;DHT22;37795;53.236;5.704;2022-12-31T16:52:34;11.40;87.60
51719;DHT22;37795;53.236;5.704;2022-12-31T16:55:08;11.40;87.60
51719;DHT22;37795;53.236;5.704;2022-12-31T16:57:35;11.40;87.60
51719;DHT22;37795;53.236;5.704;2022-12-31T17:00:03;11.40;88.00
51719;DHT22;37795;53.236;5.704;2022-12-31T17:02:40;11.30;88.40
51719;DHT22;37795;53.236;5.704;2022-12-31T17:05:20;11.30;88.60
51719;DHT22;37795;53.236;5.704;2022-12-31T17:07:46;11.40;88.50
51719;DHT22;37795;53.236;5.704;2022-12-31T17:10:19;11.40;88.40
51719;DHT22;37795;53.236;5.704;2022-12-31T17:12:58;11.40;88.20
51719;DHT22;37795;53.236;5.704;2022-12-31T17:15:44;11.40;88.30
51719;DHT22;37795;53.236;5.704;2022-12-31T17:18:17;11.40;88.30
51719;DHT22;37795;53.236;5.704;2022-12-31T17:20:44;11.40;88.30
51719;DHT22;37795;53.236;5.704;2022-12-31T17:23:25;11.40;88.40
51719;DHT22;37795;53.236;5.704;2022-12-31T17:26:00;11.40;88.50
51719;DHT22;37795;53.236;5.704;2022-12-31T17:28:31;11.40;88.60
51719;DHT22;37795;53.236;5.704;2022-12-31T17:36:31;11.50;88.30
51719;DHT22;37795;53.236;5.704;2022-12-31T17:39:16;11.50;88.20
51719;DHT22;37795;53.236;5.704;2022-12-31T17:41:44;11.50;88.30
51719;DHT22;37795;53.236;5.704;2022-12-31T17:44:17;11.50;88.30
51719;DHT22;37795;53.236;5.704;2022-12-31T17:46:44;11.60;88.30
51719;DHT22;37795;53.236;5.704;2022-12-31T17:49:11;11.60;87.90
51719;DHT22;37795;53.236;5.704;2022-12-31T17:51:40;11.70;88.20
51719;DHT22;37795;53.236;5.704;2022-12-31T17:54:16;11.60;88.40
51719;DHT22;37795;53.236;5.704;2022-12-31T17:56:42;11.60;88.40
51719;DHT22;37795;53.236;5.704;2022-12-31T17:59:17;11.50;88.60
51719;DHT22;37795;53.236;5.704;2022-12-31T18:01:43;11.50;88.80
51719;DHT22;37795;53.236;5.704;2022-12-31T18:04:14;11.60;88.80
51719;DHT22;37795;53.236;5.704;2022-12-31T18:06:40;11.70;88.80
51719;DHT22;37795;53.236;5.704;2022-12-31T18:09:07;11.70;88.50
51719;DHT22;37795;53.236;5.704;2022-12-31T18:11:34;11.70;88.90
51719;DHT22;37795;53.236;5.704;2022-12-31T18:14:00;11.70;88.80
51719;DHT22;37795;53.236;5.704;2022-12-31T18:16:26;11.80;88.90
51719;DHT22;37795;53.236;5.704;2022-12-31T18:18:52;11.80;88.80
51719;DHT22;37795;53.236;5.704;2022-12-31T18:21:28;11.80;88.70
51719;DHT22;37795;53.236;5.704;2022-12-31T18:23:57;11.80;88.80
51719;DHT22;37795;53.236;5.704;2022-12-31T18:26:24;11.80;88.70
51719;DHT22;37795;53.236;5.704;2022-12-31T18:28:50;11.80;88.70
51719;DHT22;37795;53.236;5.704;2022-12-31T18:31:27;11.80;88.50
51719;DHT22;37795;53.236;5.704;2022-12-31T18:33:56;11.80;88.60
51719;DHT22;37795;53.236;5.704;2022-12-31T18:36:26;11.80;88.30
51719;DHT22;37795;53.236;5.704;2022-12-31T18:38:53;11.80;88.00
51719;DHT22;37795;53.236;5.704;2022-12-31T18:41:23;11.90;87.60
51719;DHT22;37795;53.236;5.704;2022-12-31T18:43:51;11.90;87.50
51719;DHT22;37795;53.236;5.704;2022-12-31T18:46:19;11.90;87.20
51719;DHT22;37795;53.236;5.704;2022-12-31T18:48:46;11.90;87.10
51719;DHT22;37795;53.236;5.704;2022-12-31T18:58:34;12.10;85.40
51719;DHT22;37795;53.236;5.704;2022-12-31T19:01:00;11.80;84.70
51719;DHT22;37795;53.236;5.704;2022-12-31T19:03:26;11.90;83.90
51719;DHT22;37795;53.236;5.704;2022-12-31T19:05:55;12.00;83.50
51719;DHT22;37795;53.236;5.704;2022-12-31T19:08:22;12.40;80.70
51719;DHT22;37795;53.236;5.704;2022-12-31T19:10:48;12.50;80.20
51719;DHT22;37795;53.236;5.704;2022-12-31T19:13:15;12.50;79.60
51719;DHT22;37795;53.236;5.704;2022-12-31T19:15:45;12.40;79.60
51719;DHT22;37795;53.236;5.704;2022-12-31T19:18:11;12.40;79.10
51719;DHT22;37795;53.236;5.704;2022-12-31T19:20:37;12.30;79.40
51719;DHT22;37795;53.236;5.704;2022-12-31T19:23:03;12.40;78.90
51719;DHT22;37795;53.236;5.704;2022-12-31T19:25:33;12.40;78.00
51719;DHT22;37795;53.236;5.704;2022-12-31T19:28:01;12.40;77.90
51719;DHT22;37795;53.236;5.704;2022-12-31T19:30:32;12.30;78.30
51719;DHT22;37795;53.236;5.704;2022-12-31T19:32:58;12.20;78.50
51719;DHT22;37795;53.236;5.704;2022-12-31T19:35:24;12.20;78.50
51719;DHT22;37795;53.236;5.704;2022-12-31T19:37:52;12.10;78.50
51719;DHT22;37795;53.236;5.704;2022-12-31T19:40:28;12.10;78.40
51719;DHT22;37795;53.236;5.704;2022-12-31T19:42:54;12.20;77.80
51719;DHT22;37795;53.236;5.704;2022-12-31T19:45:23;12.10;78.30
51719;DHT22;37795;53.236;5.704;2022-12-31T19:47:51;12.10;78.60
51719;DHT22;37795;53.236;5.704;2022-12-31T19:50:23;12.20;77.30
51719;DHT22;37795;53.236;5.704;2022-12-31T19:52:51;12.20;77.60
51719;DHT22;37795;53.236;5.704;2022-12-31T19:55:19;12.30;76.70
51719;DHT22;37795;53.236;5.704;2022-12-31T19:57:46;12.30;76.30
51719;DHT22;37795;53.236;5.704;2022-12-31T20:00:14;12.20;77.10
51719;DHT22;37795;53.236;5.704;2022-12-31T20:02:42;12.40;75.30
51719;DHT22;37795;53.236;5.704;2022-12-31T20:05:09;12.40;75.20
51719;DHT22;37795;53.236;5.704;2022-12-31T20:07:35;12.40;75.30
51719;DHT22;37795;53.236;5.704;2022-12-31T20:10:01;12.40;74.90
51719;DHT22;37795;53.236;5.704;2022-12-31T20:12:28;12.40;75.10
51719;DHT22;37795;53.236;5.704;2022-12-31T20:14:54;12.40;75.10
51719;DHT22;37795;53.236;5.704;2022-12-31T20:17:19;12.30;75.20
51719;DHT22;37795;53.236;5.704;2022-12-31T20:19:45;12.40;74.20
51719;DHT22;37795;53.236;5.704;2022-12-31T20:22:11;12.50;74.30
51719;DHT22;37795;53.236;5.704;2022-12-31T20:24:36;12.50;73.90
51719;DHT22;37795;53.236;5.704;2022-12-31T20:27:02;12.60;73.60
51719;DHT22;37795;53.236;5.704;2022-12-31T20:29:28;12.60;73.90
51719;DHT22;37795;53.236;5.704;2022-12-31T20:31:55;12.50;75.00
51719;DHT22;37795;53.236;5.704;2022-12-31T20:34:21;12.30;75.70
51719;DHT22;37795;53.236;5.704;2022-12-31T20:36:46;12.30;76.10
51719;DHT22;37795;53.236;5.704;2022-12-31T20:39:12;12.30;76.70
51719;DHT22;37795;53.236;5.704;2022-12-31T20:41:38;12.30;76.50
51719;DHT22;37795;53.236;5.704;2022-12-31T20:44:03;12.40;76.10
51719;DHT22;37795;53.236;5.704;2022-12-31T20:46:30;12.40;76.40
51719;DHT22;37795;53.236;5.704;2022-12-31T20:49:01;12.40;76.30
51719;DHT22;37795;53.236;5.704;2022-12-31T20:51:29;12.40;75.50
51719;DHT22;37795;53.236;5.704;2022-12-31T20:54:03;12.50;75.20
51719;DHT22;37795;53.236;5.704;2022-12-31T20:56:31;12.40;75.50
51719;DHT22;37795;53.236;5.704;2022-12-31T20:58:57;12.30;76.10
51719;DHT22;37795;53.236;5.704;2022-12-31T21:01:24;12.30;76.40
51719;DHT22;37795;53.236;5.704;2022-12-31T21:03:50;12.30;76.70
51719;DHT22;37795;53.236;5.704;2022-12-31T21:06:16;12.10;77.80
51719;DHT22;37795;53.236;5.704;2022-12-31T21:08:42;12.00;78.60
51719;DHT22;37795;53.236;5.704;2022-12-31T21:11:08;12.00;79.20
51719;DHT22;37795;53.236;5.704;2022-12-31T21:13:54;11.90;79.90
51719;DHT22;37795;53.236;5.704;2022-12-31T21:16:21;11.80;80.30
51719;DHT22;37795;53.236;5.704;2022-12-31T21:18:47;11.80;80.40
51719;DHT22;37795;53.236;5.704;2022-12-31T21:21:13;11.80;80.60